createdAt,value
2023-02-27T00:00:59.069Z,100595.28
2023-02-27T00:04:01.721Z,100611.63
2023-02-27T00:07:04.085Z,100614.91
2023-02-27T00:10:08.355Z,100626.31
2023-02-27T00:13:10.635Z,100634.50
2023-02-27T00:16:13.064Z,100635.44
2023-02-27T00:19:15.053Z,100640.44
2023-02-27T00:22:16.939Z,100637.63
2023-02-27T00:25:19.049Z,100636.31
2023-02-27T00:28:21.879Z,100642.41
2023-02-27T00:31:24.411Z,100641.78
2023-02-27T00:34:26.541Z,100656.25
2023-02-27T00:37:28.811Z,100636.66
2023-02-27T00:40:36.166Z,100647.63
2023-02-27T00:43:38.224Z,100650.81
2023-02-27T00:46:40.298Z,100656.28
2023-02-27T00:49:45.597Z,100658.97
2023-02-27T00:52:47.703Z,100654.97
2023-02-27T00:55:49.794Z,100664.31
2023-02-27T00:58:52.145Z,100668.56
2023-02-27T01:01:54.918Z,100673.75
2023-02-27T01:04:57.039Z,100679.53
2023-02-27T01:07:58.991Z,100677.84
2023-02-27T01:11:01.381Z,100681.84
2023-02-27T01:14:03.548Z,100673.16
2023-02-27T01:17:06.612Z,100688.03
2023-02-27T01:20:12.354Z,100676.88
2023-02-27T01:23:14.426Z,100680.41
2023-02-27T01:26:20.156Z,100685.75
2023-02-27T01:29:23.586Z,100682.22
2023-02-27T01:32:25.777Z,100683.59
2023-02-27T01:35:28.009Z,100678.09
2023-02-27T01:38:30.871Z,100690.72
2023-02-27T01:41:34.024Z,100687.00
2023-02-27T01:45:17.341Z,100686.56
2023-02-27T01:48:36.210Z,100685.03
2023-02-27T01:51:43.733Z,100684.63
2023-02-27T01:54:45.593Z,100681.22
2023-02-27T01:57:49.492Z,100681.63
2023-02-27T02:00:51.542Z,100682.66
2023-02-27T02:04:12.215Z,100689.59
2023-02-27T02:07:19.568Z,100704.47
2023-02-27T02:10:26.758Z,100700.22
2023-02-27T02:13:29.284Z,100706.84
2023-02-27T02:16:45.180Z,100713.22
2023-02-27T02:20:15.182Z,100717.81
2023-02-27T02:23:32.598Z,100726.06
2023-02-27T02:26:47.634Z,100732.47
2023-02-27T02:30:13.726Z,100738.66
2023-02-27T02:33:33.973Z,100737.41
2023-02-27T02:37:13.575Z,100739.88
2023-02-27T02:40:30.777Z,100740.72
2023-02-27T02:43:49.915Z,100732.03
2023-02-27T02:47:03.578Z,100743.19
2023-02-27T02:50:26.864Z,100742.28
2023-02-27T02:53:56.046Z,100751.78
2023-02-27T02:57:11.210Z,100746.16
2023-02-27T03:00:21.209Z,100751.97
2023-02-27T03:03:35.562Z,100754.75
2023-02-27T03:06:50.293Z,100747.31
2023-02-27T03:10:10.361Z,100750.53
2023-02-27T03:13:21.948Z,100756.84
2023-02-27T03:16:44.447Z,100759.72
2023-02-27T03:19:52.748Z,100766.03
2023-02-27T03:23:00.713Z,100772.00
2023-02-27T03:26:05.429Z,100781.13
2023-02-27T03:29:12.214Z,100766.25
2023-02-27T03:32:21.577Z,100770.88
2023-02-27T03:35:32.777Z,100786.81
2023-02-27T03:38:56.188Z,100772.44
2023-02-27T03:42:16.050Z,100791.97
2023-02-27T03:45:54.221Z,100779.56
2023-02-27T03:48:56.684Z,100793.00
2023-02-27T03:52:01.200Z,100799.84
2023-02-27T03:55:13.922Z,100784.97
2023-02-27T03:58:18.901Z,100799.84
2023-02-27T04:01:23.962Z,100798.38
2023-02-27T04:04:31.993Z,100805.09
2023-02-27T04:08:05.288Z,100806.75
2023-02-27T04:11:26.858Z,100803.53
2023-02-27T04:14:57.227Z,100803.25
2023-02-27T04:18:11.293Z,100808.22
2023-02-27T04:21:31.167Z,100808.59
2023-02-27T04:25:18.694Z,100799.84
2023-02-27T04:28:47.914Z,100812.94
2023-02-27T04:32:01.798Z,100831.22
2023-02-27T04:35:11.085Z,100820.59
2023-02-27T04:38:19.058Z,100824.09
2023-02-27T04:41:25.795Z,100826.59
2023-02-27T04:44:32.675Z,100827.91
2023-02-27T04:47:41.890Z,100829.47
2023-02-27T04:50:57.637Z,100822.75
2023-02-27T04:54:10.665Z,100835.06
2023-02-27T04:57:19.593Z,100821.72
2023-02-27T05:00:28.506Z,100829.66
2023-02-27T05:03:37.596Z,100835.66
2023-02-27T05:06:43.411Z,100832.16
2023-02-27T05:09:55.424Z,100837.75
2023-02-27T05:13:06.578Z,100852.13
2023-02-27T05:16:20.116Z,100852.72
2023-02-27T05:19:22.950Z,100869.66
2023-02-27T05:22:39.338Z,100861.91
2023-02-27T05:25:58.547Z,100861.00
2023-02-27T05:29:17.264Z,100866.28
2023-02-27T05:32:34.818Z,100873.00
2023-02-27T05:35:54.193Z,100875.88
2023-02-27T05:39:04.764Z,100886.13
2023-02-27T05:42:38.642Z,100891.38
2023-02-27T05:45:44.949Z,100894.91
2023-02-27T05:48:59.867Z,100881.47
2023-02-27T05:52:05.608Z,100896.44
2023-02-27T05:55:21.017Z,100904.94
2023-02-27T05:58:35.666Z,100901.50
2023-02-27T06:01:41.240Z,100913.59
2023-02-27T06:04:43.351Z,100911.38
2023-02-27T06:07:45.703Z,100915.13
2023-02-27T06:10:49.843Z,100921.53
2023-02-27T06:13:52.157Z,100932.03
2023-02-27T06:16:54.068Z,100933.25
2023-02-27T06:19:58.773Z,100933.72
2023-02-27T06:23:02.041Z,100941.53
2023-02-27T06:26:11.041Z,100939.28
2023-02-27T06:29:13.878Z,100961.00
2023-02-27T06:32:16.080Z,100964.47
2023-02-27T06:35:18.212Z,100971.94
2023-02-27T06:38:20.132Z,100984.84
2023-02-27T06:41:23.916Z,100996.66
2023-02-27T06:44:27.238Z,100994.25
2023-02-27T06:47:29.452Z,101001.41
2023-02-27T06:50:32.110Z,101008.25
2023-02-27T06:53:46.397Z,101011.44
2023-02-27T06:56:49.265Z,101012.91
2023-02-27T06:59:51.428Z,101004.28
2023-02-27T07:02:53.928Z,101011.78
2023-02-27T07:05:59.668Z,101017.03
2023-02-27T07:09:07.144Z,101020.81
2023-02-27T07:12:17.832Z,101014.53
2023-02-27T07:15:31.624Z,101004.31
2023-02-27T07:18:34.016Z,101019.44
2023-02-27T07:21:42.992Z,101029.28
2023-02-27T07:24:46.980Z,101027.88
2023-02-27T07:27:50.929Z,101014.25
2023-02-27T07:30:56.666Z,101007.09
2023-02-27T07:34:07.160Z,101038.69
2023-02-27T07:37:10.138Z,101026.47
2023-02-27T07:40:15.141Z,101017.06
2023-02-27T07:43:18.644Z,101045.44
2023-02-27T07:46:24.026Z,101045.91
2023-02-27T07:49:26.615Z,101041.75
2023-02-27T07:55:40.391Z,101011.13
2023-02-27T08:03:16.380Z,101038.16
2023-02-27T08:06:43.315Z,101038.25
2023-02-27T08:26:02.439Z,101087.97
2023-02-27T08:51:10.793Z,101086.94
2023-02-27T08:54:21.646Z,101087.69
2023-02-27T08:57:24.512Z,101127.63
2023-02-27T09:00:41.374Z,101119.22
2023-02-27T09:18:10.020Z,101140.00
2023-02-27T09:26:13.735Z,101150.91
2023-02-27T09:43:00.063Z,101128.94
2023-02-27T09:46:57.699Z,101137.56
2023-02-27T09:55:03.315Z,101149.41
2023-02-27T10:03:31.408Z,101164.78
2023-02-27T10:11:08.308Z,101143.34
2023-02-27T10:19:33.707Z,101126.13
2023-02-27T10:22:50.115Z,101163.88
2023-02-27T10:44:01.314Z,101150.88
2023-02-27T10:55:40.352Z,101145.25
2023-02-27T11:20:44.023Z,101126.19
2023-02-27T11:24:12.007Z,101110.13
2023-02-27T11:27:29.487Z,101154.16
2023-02-27T11:31:02.074Z,101149.13
2023-02-27T11:34:12.140Z,101146.56
2023-02-27T11:37:37.376Z,101143.50
2023-02-27T11:44:50.360Z,101129.56
2023-02-27T11:48:13.452Z,101151.56
2023-02-27T11:51:58.604Z,101155.03
2023-02-27T11:55:06.665Z,101153.13
2023-02-27T11:58:23.326Z,101119.22
2023-02-27T12:01:34.815Z,101145.09
2023-02-27T12:04:56.069Z,101153.97
2023-02-27T12:08:12.685Z,101146.63
2023-02-27T12:15:56.736Z,101154.44
2023-02-27T12:19:37.783Z,101150.44
2023-02-27T12:22:49.335Z,101127.63
2023-02-27T12:26:23.452Z,101159.13
2023-02-27T12:29:36.081Z,101162.25
2023-02-27T12:32:49.164Z,101145.44
2023-02-27T12:36:00.090Z,101161.03
2023-02-27T12:39:04.899Z,101166.72
2023-02-27T12:42:25.902Z,101173.47
2023-02-27T12:46:00.623Z,101175.56
2023-02-27T12:49:24.958Z,101178.28
2023-02-27T12:52:55.787Z,101178.28
2023-02-27T12:56:08.008Z,101162.00
2023-02-27T12:59:46.120Z,101184.69
2023-02-27T13:03:01.241Z,101180.53
2023-02-27T13:06:09.901Z,101179.94
2023-02-27T13:09:35.099Z,101180.06
2023-02-27T13:12:43.361Z,101184.44
2023-02-27T13:16:11.437Z,101159.28
2023-02-27T13:19:25.294Z,101167.28
2023-02-27T13:22:57.690Z,101181.38
2023-02-27T13:26:05.659Z,101185.59
2023-02-27T13:29:15.258Z,101162.69
2023-02-27T13:32:45.160Z,101192.31
2023-02-27T13:36:22.490Z,101193.06
2023-02-27T13:39:44.066Z,101195.31
2023-02-27T13:42:49.080Z,101192.50
2023-02-27T13:46:25.139Z,101182.53
2023-02-27T13:49:31.105Z,101187.84
2023-02-27T13:52:38.054Z,101197.09
2023-02-27T13:55:41.357Z,101168.25
2023-02-27T13:58:44.846Z,101194.13
2023-02-27T14:02:22.536Z,101179.56
2023-02-27T14:05:40.232Z,101192.34
2023-02-27T14:08:52.238Z,101192.72
2023-02-27T14:12:02.070Z,101188.69
2023-02-27T14:15:35.095Z,101189.16
2023-02-27T14:18:59.471Z,101193.88
2023-02-27T14:22:14.319Z,101194.00
2023-02-27T14:25:23.359Z,101184.56
2023-02-27T14:28:34.785Z,101191.06
2023-02-27T14:31:40.431Z,101183.88
2023-02-27T14:34:42.648Z,101190.56
2023-02-27T14:37:45.314Z,101192.72
2023-02-27T14:41:06.075Z,101187.25
2023-02-27T14:44:25.321Z,101198.84
2023-02-27T14:47:37.145Z,101199.06
2023-02-27T14:50:41.613Z,101204.88
2023-02-27T14:53:44.106Z,101200.59
2023-02-27T14:56:57.619Z,101196.31
2023-02-27T15:00:01.443Z,101200.31
2023-02-27T15:03:20.667Z,101209.53
2023-02-27T15:06:39.433Z,101212.94
2023-02-27T15:09:43.644Z,101208.69
2023-02-27T15:12:52.682Z,101221.97
2023-02-27T15:16:23.270Z,101224.38
2023-02-27T15:19:31.644Z,101235.91
2023-02-27T15:22:40.074Z,101241.00
2023-02-27T15:25:44.610Z,101229.72
2023-02-27T15:29:00.079Z,101252.31
2023-02-27T15:32:04.799Z,101260.31
2023-02-27T15:35:24.313Z,101267.94
2023-02-27T15:38:36.075Z,101255.28
2023-02-27T15:41:38.940Z,101268.94
2023-02-27T15:44:44.970Z,101273.09
2023-02-27T15:47:49.672Z,101273.09
2023-02-27T15:50:58.875Z,101272.50
2023-02-27T15:54:09.741Z,101281.81
2023-02-27T15:57:14.807Z,101294.19
2023-02-27T16:00:21.485Z,101303.41
2023-02-27T16:03:24.650Z,101290.72
2023-02-27T16:06:35.191Z,101300.91
2023-02-27T16:09:38.676Z,101298.72
2023-02-27T16:12:45.700Z,101306.88
2023-02-27T16:16:26.865Z,101309.69
2023-02-27T16:19:33.027Z,101312.88
2023-02-27T16:22:37.454Z,101318.81
2023-02-27T16:25:41.581Z,101306.50
2023-02-27T16:29:02.950Z,101334.16
2023-02-27T16:32:06.629Z,101323.72
2023-02-27T16:35:24.576Z,101344.38
2023-02-27T16:38:31.241Z,101333.28
2023-02-27T16:41:39.272Z,101335.47
2023-02-27T16:44:47.158Z,101343.47
2023-02-27T16:47:52.394Z,101320.88
2023-02-27T16:50:58.537Z,101363.16
2023-02-27T16:54:01.136Z,101347.84
2023-02-27T16:57:07.861Z,101331.03
2023-02-27T17:00:20.661Z,101376.38
2023-02-27T17:03:23.193Z,101375.75
2023-02-27T17:06:30.566Z,101395.56
2023-02-27T17:09:33.648Z,101381.66
2023-02-27T17:12:36.823Z,101395.13
2023-02-27T17:15:42.786Z,101391.50
2023-02-27T17:18:47.714Z,101398.56
2023-02-27T17:21:54.232Z,101404.91
2023-02-27T17:24:56.401Z,101399.28
2023-02-27T17:28:00.650Z,101406.13
2023-02-27T17:31:15.611Z,101410.28
2023-02-27T17:34:20.364Z,101411.50
2023-02-27T17:37:24.723Z,101407.97
2023-02-27T17:40:27.295Z,101406.53
2023-02-27T17:43:32.808Z,101415.25
2023-02-27T17:46:35.516Z,101412.84
2023-02-27T17:49:38.906Z,101418.41
2023-02-27T17:52:41.167Z,101426.19
2023-02-27T17:55:45.074Z,101436.34
2023-02-27T17:58:47.594Z,101429.25
2023-02-27T18:01:50.264Z,101435.41
2023-02-27T18:04:56.325Z,101440.69
2023-02-27T18:07:58.378Z,101443.19
2023-02-27T18:11:01.257Z,101447.50
2023-02-27T18:14:05.305Z,101434.88
2023-02-27T18:17:12.109Z,101459.75
2023-02-27T18:20:14.774Z,101469.41
2023-02-27T18:23:17.518Z,101478.59
2023-02-27T18:26:30.051Z,101476.41
2023-02-27T18:29:41.896Z,101469.88
2023-02-27T18:32:45.485Z,101461.47
2023-02-27T18:35:48.894Z,101472.09
2023-02-27T18:38:54.039Z,101465.53
2023-02-27T18:41:56.837Z,101470.50
2023-02-27T18:45:00.800Z,101477.50
2023-02-27T18:48:05.209Z,101488.31
2023-02-27T18:51:13.558Z,101494.00
2023-02-27T18:54:19.885Z,101495.75
2023-02-27T18:57:25.398Z,101506.91
2023-02-27T19:00:31.307Z,101510.88
2023-02-27T19:03:37.299Z,101513.16
2023-02-27T19:06:42.358Z,101523.00
2023-02-27T19:09:47.052Z,101532.63
2023-02-27T19:12:51.871Z,101530.09
2023-02-27T19:15:56.241Z,101526.03
2023-02-27T19:19:00.658Z,101538.28
2023-02-27T19:22:03.151Z,101531.97
2023-02-27T19:25:06.889Z,101533.47
2023-02-27T19:28:11.962Z,101534.97
2023-02-27T19:31:15.021Z,101563.19
2023-02-27T19:34:17.673Z,101560.13
2023-02-27T19:37:19.970Z,101560.03
2023-02-27T19:40:23.550Z,101544.16
2023-02-27T19:43:26.315Z,101545.91
2023-02-27T19:46:34.361Z,101556.03
2023-02-27T19:49:40.344Z,101546.06
2023-02-27T19:52:44.337Z,101546.97
2023-02-27T19:55:47.662Z,101561.13
2023-02-27T19:58:51.214Z,101569.59
2023-02-27T20:01:53.668Z,101577.59
2023-02-27T20:04:57.505Z,101592.03
2023-02-27T20:07:59.759Z,101599.28
2023-02-27T20:11:07.610Z,101603.22
2023-02-27T20:14:10.730Z,101603.97
2023-02-27T20:17:22.450Z,101621.72
2023-02-27T20:20:24.804Z,101617.88
2023-02-27T20:23:29.111Z,101617.97
2023-02-27T20:26:43.440Z,101619.13
2023-02-27T20:29:56.097Z,101628.69
2023-02-27T20:32:59.117Z,101619.44
2023-02-27T20:36:17.073Z,101613.63
2023-02-27T20:39:20.681Z,101626.78
2023-02-27T20:42:23.191Z,101626.78
2023-02-27T20:45:25.787Z,101642.13
2023-02-27T20:48:28.561Z,101638.47
2023-02-27T20:51:37.523Z,101641.59
2023-02-27T20:54:41.414Z,101640.19
2023-02-27T20:57:44.171Z,101644.75
2023-02-27T21:00:48.581Z,101648.50
2023-02-27T21:03:52.104Z,101650.41
2023-02-27T21:06:56.080Z,101639.03
2023-02-27T21:09:58.709Z,101647.56
2023-02-27T21:13:01.432Z,101650.69
2023-02-27T21:16:05.332Z,101648.47
2023-02-27T21:19:09.580Z,101656.00
2023-02-27T21:22:11.927Z,101667.09
2023-02-27T21:25:15.210Z,101675.53
2023-02-27T21:28:17.610Z,101670.78
2023-02-27T21:31:22.034Z,101671.22
2023-02-27T21:34:28.764Z,101664.59
2023-02-27T21:37:30.808Z,101664.16
2023-02-27T21:40:35.091Z,101666.66
2023-02-27T21:43:37.957Z,101663.69
2023-02-27T21:46:41.888Z,101660.97
2023-02-27T21:49:44.310Z,101671.13
2023-02-27T21:52:46.398Z,101672.75
2023-02-27T21:55:50.449Z,101681.81
2023-02-27T21:58:52.652Z,101689.19
2023-02-27T22:01:58.583Z,101668.06
2023-02-27T22:05:00.802Z,101658.38
2023-02-27T22:08:05.245Z,101654.81
2023-02-27T22:11:08.550Z,101663.19
2023-02-27T22:14:14.755Z,101656.69
2023-02-27T22:17:16.789Z,101649.19
2023-02-27T22:20:20.274Z,101649.63
2023-02-27T22:23:22.327Z,101661.63
2023-02-27T22:26:28.265Z,101665.22
2023-02-27T22:29:31.770Z,101658.75
2023-02-27T22:32:37.797Z,101656.56
2023-02-27T22:35:39.776Z,101648.25
2023-02-27T22:38:43.023Z,101642.53
2023-02-27T22:41:46.254Z,101658.66
2023-02-27T22:44:48.666Z,101657.59
2023-02-27T22:47:50.654Z,101663.59
2023-02-27T22:51:22.344Z,101669.59
2023-02-27T22:54:24.392Z,101667.31
2023-02-27T22:57:26.489Z,101664.91
2023-02-27T23:00:28.538Z,101667.91
2023-02-27T23:03:30.576Z,101672.47
2023-02-27T23:06:36.836Z,101663.47
2023-02-27T23:09:39.973Z,101677.13
2023-02-27T23:12:42.176Z,101671.28
2023-02-27T23:15:46.739Z,101664.63
2023-02-27T23:18:55.152Z,101667.28
2023-02-27T23:22:00.303Z,101666.06
2023-02-27T23:25:07.020Z,101669.66
2023-02-27T23:28:09.114Z,101676.38
2023-02-27T23:31:11.665Z,101668.44
2023-02-27T23:34:13.887Z,101666.50
2023-02-27T23:37:18.292Z,101679.44
2023-02-27T23:40:22.760Z,101678.44
2023-02-27T23:43:43.977Z,101674.91
2023-02-27T23:46:46.457Z,101684.66
2023-02-27T23:49:48.408Z,101682.59
2023-02-27T23:52:52.246Z,101682.66
2023-02-27T23:55:54.944Z,101688.25
2023-02-27T23:59:03.744Z,101687.16
